Thunder radar more information blitzortung!


avis per Pluja more information rain snow radar


Visita la nostra xarxa de llocs de meteo:

Template documentation
and downloads

And another site



Rain From: 18-10-2018 10:00 Until: 16:59 warning for: Rain Level: Yellow info button

Pagina Historial Weather Underground text

Diari Resum Juny 18, 2016 Unitats:  Mètric    Imperial   Tant
« Previous Dia
SegĂźent Dia »
Diari Setmana Mensual Anual Personalitzada
  Maxima: Minima: Media:
Temperatura: -17.8 °C -10.2 °C -7.8 °C
Punt de rosada: -17.8 °C -14 °C -12.9 °C
Humitat: Humidity % 32 % 56 %
Wind Speed: 0 km/h 0 km/h 11.9 km/h
RĂ fegues de vent: 0 km/h - -
Vent:- - SE
Pression baro: 0 hPa 34428.8 hPa -
Precipitacions: 0 mm    
Historical Graphs
 
 
Dades de taula per Juny 18, 2016
Temps Temperatura Punt de rosada Pression baro Vent Wind Speed RĂ fegues de vent Humitat Rainfall Rate (Hourly)
-17.8 °C -17.8 °C 0 hPa Calm     Humidity % 0 mm
00:01 -7.5 °C -12.8 °C 34428.8 hPa SW 6.8 km/h 6.8 km/h 54 % 0 mm
00:05 -8.2 °C -12.7 °C 34462.7 hPa Calm     59 % 0 mm
00:15 -8.3 °C -12.5 °C 34462.7 hPa Calm     61 % 0 mm
00:25 -8.5 °C -12.4 °C 34462.7 hPa Calm     63 % 0 mm
00:35 -8.6 °C -12.4 °C 34462.7 hPa Calm     64 % 0 mm
00:45 -8.7 °C -12.4 °C 34462.7 hPa Calm     64 % 0 mm
00:55 -8.7 °C -12.5 °C 34462.7 hPa Calm   2.6 km/h 64 % 0 mm
01:05 -8.8 °C -12.6 °C 34462.7 hPa NE 2.6 km/h 5.1 km/h 64 % 0 mm
01:15 -8.9 °C -12.6 °C 34462.7 hPa North 5.1 km/h 7.7 km/h 65 % 0 mm
01:25 -8.9 °C -12.4 °C 34462.7 hPa Calm   5.1 km/h 66 % 0 mm
01:35 -9.3 °C -12.6 °C 34462.7 hPa Calm   7.7 km/h 68 % 0 mm
01:45 -9.4 °C -12.4 °C 34462.7 hPa Calm   2.6 km/h 70 % 0 mm
01:55 -9.7 °C -12.5 °C 34462.7 hPa Calm   2.6 km/h 72 % 0 mm
02:05 -9.8 °C -12.5 °C 34496.6 hPa Calm   2.6 km/h 73 % 0 mm
02:15 -9.9 °C -12.4 °C 34496.6 hPa Calm   2.6 km/h 74 % 0 mm
02:25 -9.9 °C -12.3 °C 34496.6 hPa Calm   2.6 km/h 76 % 0 mm
02:35 -9.9 °C -12.2 °C 34496.6 hPa Calm   2.6 km/h 77 % 0 mm
02:45 -9.9 °C -12.1 °C 34496.6 hPa Calm   2.6 km/h 77 % 0 mm
02:55 -9.8 °C -12.2 °C 34496.6 hPa SW 7.7 km/h 10.3 km/h 75 % 0 mm
03:05 -9.8 °C -12.2 °C 34496.6 hPa South 5.1 km/h 5.1 km/h 75 % 0 mm
03:15 -9.8 °C -12.2 °C 34533.8 hPa SSW 5.1 km/h 7.7 km/h 76 % 0 mm
03:25 -9.8 °C -12.2 °C 34533.8 hPa WSW 2.6 km/h 7.7 km/h 76 % 0 mm
03:35 -9.8 °C -12 °C 34533.8 hPa Calm   5.1 km/h 77 % 0 mm
03:55 -9.8 °C -12 °C 34533.8 hPa WSW 2.6 km/h 7.7 km/h 77 % 0 mm
04:05 -9.5 °C -11.7 °C 34496.6 hPa SW 5.1 km/h 7.7 km/h 77 % 0 mm
04:15 -9.3 °C -11.7 °C 34533.8 hPa Calm   7.7 km/h 76 % 0 mm
04:25 -9.3 °C -11.8 °C 34533.8 hPa SW 2.6 km/h 5.1 km/h 74 % 0 mm
04:35 -9.2 °C -11.9 °C 34533.8 hPa SW 2.6 km/h 10.3 km/h 73 % 0 mm
04:45 -9.2 °C -11.8 °C 34533.8 hPa SW 2.6 km/h 7.7 km/h 73 % 0 mm
04:55 -9 °C -11.9 °C 34533.8 hPa WSW 7.7 km/h 12.9 km/h 71 % 0 mm
05:05 -8.6 °C -11.9 °C 34533.8 hPa WSW 5.1 km/h 10.3 km/h 68 % 0 mm
05:15 -8.4 °C -12.1 °C 34533.8 hPa West 5.1 km/h 15.6 km/h 65 % 0 mm
05:25 -7.8 °C -11.8 °C 34533.8 hPa West 7.7 km/h 15.6 km/h 63 % 0 mm
05:35 -7.5 °C -11.8 °C 34533.8 hPa WSW 7.7 km/h 12.9 km/h 61 % 0 mm
05:40 -7.3 °C -11.7 °C 34533.8 hPa WSW 5.1 km/h 7.7 km/h 60 % 0 mm
10:44 -7.5 °C -12.3 °C 34533.8 hPa WSW 12.2 km/h 12.2 km/h 57 % 0 mm
10:49 -7.3 °C -12.2 °C 34533.8 hPa SW 11.9 km/h 11.9 km/h 57 % 0 mm
10:54 -7.2 °C -12.3 °C 34533.8 hPa WSW 11.9 km/h 11.9 km/h 55 % 0 mm
10:59 -7.1 °C -12.4 °C 34533.8 hPa NW 11.9 km/h 11.9 km/h 54 % 0 mm
11:04 -7.1 °C -12.5 °C 34533.8 hPa WNW 9 km/h 9 km/h 53 % 0 mm
11:09 -6.9 °C -12.6 °C 34533.8 hPa SW 15 km/h 15 km/h 52 % 0 mm
11:14 -6.8 °C -12.6 °C 34533.8 hPa WSW 15 km/h 15 km/h 51 % 0 mm
11:19 -6.9 °C -13 °C 34533.8 hPa West 30.6 km/h 30.6 km/h 49 % 0 mm
11:24 -6.8 °C -12.8 °C 34533.8 hPa WNW 15 km/h 15 km/h 50 % 0 mm
11:29 -6.6 °C -12.6 °C 34533.8 hPa WSW 15 km/h 15 km/h 50 % 0 mm
11:34 -6.3 °C -12.3 °C 34533.8 hPa WSW 9 km/h 9.8 km/h 50 % 0 mm
11:44 -6.3 °C -12.5 °C 34533.8 hPa WSW 7.6 km/h 7.6 km/h 49 % 0 mm
11:49 -6.3 °C -12.4 °C 34533.8 hPa WNW 15 km/h 15 km/h 49 % 0 mm
11:54 -6.2 °C -12.6 °C 34533.8 hPa WSW 12.7 km/h 12.7 km/h 48 % 0 mm
11:59 -6.2 °C -12.7 °C 34533.8 hPa WNW 17.9 km/h 17.9 km/h 47 % 0 mm
12:04 -6.2 °C -12.9 °C 34533.8 hPa SW 22 km/h 22 km/h 46 % 0 mm
12:09 -6.2 °C -12.7 °C 34533.8 hPa WSW 15 km/h 15 km/h 47 % 0 mm
12:14 -6.1 °C -12.9 °C 34533.8 hPa SW 17.9 km/h 17.9 km/h 45 % 0 mm
12:19 -5.9 °C -12.8 °C 34533.8 hPa WSW 15 km/h 15 km/h 45 % 0 mm
12:24 -5.9 °C -13 °C 34533.8 hPa SSW 15 km/h 15 km/h 44 % 0 mm
12:29 -5.8 °C -13.1 °C 34533.8 hPa WSW 15 km/h 15 km/h 43 % 0 mm
12:34 -5.7 °C -13.2 °C 34533.8 hPa SW 10.3 km/h 10.3 km/h 42 % 0 mm
12:39 -5.6 °C -13.1 °C 34533.8 hPa SSW 17.9 km/h 17.9 km/h 42 % 0 mm
12:44 -5.4 °C -12.8 °C 34533.8 hPa WSW 15.6 km/h 15.6 km/h 43 % 0 mm
12:49 -5.2 °C -12.6 °C 34533.8 hPa SW 11.1 km/h 11.1 km/h 43 % 0 mm
12:54 -5.4 °C -12.9 °C 34533.8 hPa WSW 20.9 km/h 20.9 km/h 42 % 0 mm
12:59 -5.4 °C -12.9 °C 34533.8 hPa North 9 km/h 9 km/h 42 % 0 mm
13:04 -5.2 °C -12.7 °C 34533.8 hPa ESE 17.9 km/h 17.9 km/h 42 % 0 mm
13:09 -5.2 °C -12.9 °C 34533.8 hPa WSW 20.9 km/h 20.9 km/h 41 % 0 mm
13:14 -5.3 °C -13 °C 34533.8 hPa WNW 15 km/h 15 km/h 41 % 0 mm
13:19 -5.1 °C -12.8 °C 34533.8 hPa WNW 20.9 km/h 20.9 km/h 41 % 0 mm
13:24 -5 °C -13.4 °C 34533.8 hPa SSE 17.9 km/h 17.9 km/h 38 % 0 mm
13:29 -4.9 °C -13.5 °C 34496.6 hPa West 23.8 km/h 23.8 km/h 37 % 0 mm
13:34 -4.7 °C -13.2 °C 34496.6 hPa SW 17.9 km/h 17.9 km/h 38 % 0 mm
13:39 -4.6 °C -13.2 °C 34496.6 hPa SSE 11.9 km/h 11.9 km/h 37 % 0 mm
13:44 -4.8 °C -13.4 °C 34496.6 hPa West 15 km/h 15 km/h 37 % 0 mm
13:49 -4.6 °C -13.5 °C 34496.6 hPa SSW 15 km/h 15 km/h 36 % 0 mm
13:54 -4.4 °C -13.1 °C 34496.6 hPa West 9 km/h 9 km/h 37 % 0 mm
13:59 -4.5 °C -13.4 °C 34496.6 hPa WSW 17.9 km/h 17.9 km/h 36 % 0 mm
14:04 -4.7 °C -13.5 °C 34496.6 hPa NW 15 km/h 15 km/h 36 % 0 mm
14:09 -4.4 °C -13.6 °C 34496.6 hPa SSW 11.1 km/h 11.6 km/h 35 % 0 mm
14:14 -4.3 °C -13.4 °C 34496.6 hPa SE 20.9 km/h 20.9 km/h 35 % 0 mm
14:24 -4 °C -13.2 °C 34496.6 hPa WSW 17.9 km/h 17.9 km/h 35 % 0 mm
14:29 -4 °C -13.7 °C 34496.6 hPa SW 20.9 km/h 20.9 km/h 33 % 0 mm
14:34 -3.9 °C -13.6 °C 34496.6 hPa South 15.6 km/h 15.6 km/h 33 % 0 mm
14:39 -3.8 °C -13.5 °C 34496.6 hPa WSW 15 km/h 15 km/h 33 % 0 mm
14:44 -4.2 °C -13.8 °C 34496.6 hPa SW 11.9 km/h 11.9 km/h 33 % 0 mm
14:49 -4.3 °C -13.9 °C 34496.6 hPa WNW 11.9 km/h 11.9 km/h 33 % 0 mm
14:54 -4.3 °C -13.7 °C 34496.6 hPa West 6 km/h 6.8 km/h 34 % 0 mm
14:59 -4.4 °C -14 °C 34496.6 hPa SE 9 km/h 9 km/h 33 % 0 mm
15:09 -3.4 °C -13.4 °C 34496.6 hPa ENE 16.6 km/h 16.6 km/h 32 % 0 mm
15:14 -3.7 °C -13.6 °C 34496.6 hPa East 11.9 km/h 11.9 km/h 32 % 0 mm
15:19 -4.6 °C -13.2 °C 34496.6 hPa NE 20.9 km/h 20.9 km/h 37 % 0 mm
15:24 -5.2 °C -13.2 °C 34496.6 hPa SE 32.8 km/h 32.8 km/h 40 % 0 mm
15:29 -5.7 °C -13 °C 34496.6 hPa ENE 20.9 km/h 20.9 km/h 43 % 0 mm
15:34 -6.1 °C -13 °C 34496.6 hPa ESE 29.8 km/h 29.8 km/h 45 % 0 mm
15:39 -6.4 °C -13.1 °C 34496.6 hPa ENE 29.8 km/h 29.8 km/h 46 % 0 mm
15:44 -6.7 °C -12.8 °C 34533.8 hPa ENE 29.8 km/h 29.8 km/h 49 % 0 mm
15:49 -6.9 °C -12.8 °C 34533.8 hPa ESE 32.8 km/h 32.8 km/h 50 % 0 mm
15:54 -6.9 °C -12.8 °C 34533.8 hPa ENE 38.8 km/h 38.8 km/h 50 % 0 mm
15:59 -7 °C -12.8 °C 34533.8 hPa East 23.8 km/h 23.8 km/h 51 % 0 mm
16:04 -7.2 °C -12.9 °C 34533.8 hPa ESE 26.9 km/h 26.9 km/h 51 % 0 mm
16:09 -7.3 °C -12.9 °C 34533.8 hPa ENE 29.8 km/h 29.8 km/h 52 % 0 mm
16:14 -7.4 °C -13 °C 34533.8 hPa ESE 29.8 km/h 29.8 km/h 52 % 0 mm
16:19 -7.4 °C -12.8 °C 34533.8 hPa ENE 33.6 km/h 33.6 km/h 53 % 0 mm
16:24 -7.4 °C -12.9 °C 34533.8 hPa ENE 32.8 km/h 32.8 km/h 53 % 0 mm
16:29 -7.5 °C -12.9 °C 34496.6 hPa ESE 32.8 km/h 32.8 km/h 53 % 0 mm
16:35 -7.6 °C -12.7 °C 34496.6 hPa NE 17.9 km/h 17.9 km/h 55 % 0 mm
16:40 -7.6 °C -12.6 °C 34496.6 hPa East 15 km/h 15 km/h 56 % 0 mm
16:45 -7.7 °C -12.3 °C 34533.8 hPa ENE 17.9 km/h 17.9 km/h 58 % 0 mm
16:50 -7.7 °C -12.3 °C 34533.8 hPa East 11.9 km/h 11.9 km/h 59 % 0 mm
16:55 -7.6 °C -12 °C 34533.8 hPa East 17.4 km/h 17.4 km/h 60 % 0 mm
17:00 -7.6 °C -12 °C 34567.7 hPa East 20.9 km/h 20.9 km/h 60 % 0 mm
17:05 -7.4 °C -11.8 °C 34567.7 hPa NE 35.7 km/h 35.7 km/h 60 % 0 mm
17:10 -7.4 °C -11.7 °C 34567.7 hPa ENE 17.9 km/h 17.9 km/h 61 % 0 mm
17:15 -7.6 °C -11.9 °C 34567.7 hPa East 18.2 km/h 28.5 km/h 60 % 0 mm
17:20 -7.7 °C -12.1 °C 34567.7 hPa ENE 15.6 km/h 25.9 km/h 60 % 0 mm
17:25 -8.1 °C -12.6 °C 34567.7 hPa NE 18.2 km/h 31.1 km/h 59 % 0 mm
17:30 -8.2 °C -12.7 °C 34601.5 hPa NE 18.2 km/h 23.3 km/h 59 % 0 mm
17:35 -8.3 °C -13.1 °C 34601.5 hPa NE 12.9 km/h 23.3 km/h 57 % 0 mm
17:40 -8.4 °C -13.3 °C 34601.5 hPa NE 18.2 km/h 23.3 km/h 56 % 0 mm
17:45 -8.3 °C -13.4 °C 34601.5 hPa ENE 12.9 km/h 15.6 km/h 55 % 0 mm
17:50 -8.2 °C -13.2 °C 34601.5 hPa ENE 15 km/h 15 km/h 55 % 0 mm
17:55 -8 °C -13.3 °C 34601.5 hPa NE 12.9 km/h 18.2 km/h 54 % 0 mm
18:00 -7.8 °C -13 °C 34601.5 hPa ENE 15.6 km/h 23.3 km/h 54 % 0 mm
18:05 -7.8 °C -13 °C 34601.5 hPa East 18.2 km/h 33.6 km/h 54 % 0 mm
18:15 -8 °C -13.1 °C 34601.5 hPa ENE 23.8 km/h 23.8 km/h 55 % 0 mm
18:20 -8.1 °C -13.2 °C 34601.5 hPa SE 41.2 km/h 41.2 km/h 55 % 0 mm
18:25 -8.3 °C -13.2 °C 34601.5 hPa SE 27.2 km/h 27.2 km/h 56 % 0 mm
18:30 -8.4 °C -13 °C 34601.5 hPa ESE 23.8 km/h 23.8 km/h 58 % 0 mm
18:35 -8.7 °C -13.1 °C 34601.5 hPa SSE 25.9 km/h 25.9 km/h 59 % 0 mm
18:40 -8.7 °C -13 °C 34601.5 hPa ESE 18.2 km/h 36.2 km/h 60 % 0 mm
18:45 -8.8 °C -13.1 °C 34567.7 hPa East 20.8 km/h 31.1 km/h 60 % 0 mm
18:50 -8.9 °C -13.1 °C 34567.7 hPa East 20.8 km/h 36.2 km/h 61 % 0 mm
18:55 -9 °C -13 °C 34567.7 hPa East 15.6 km/h 31.1 km/h 62 % 0 mm
19:00 -8.9 °C -12.9 °C 34567.7 hPa East 15.6 km/h 25.9 km/h 63 % 0 mm
19:05 -8.9 °C -12.8 °C 34567.7 hPa East 12.9 km/h 25.9 km/h 63 % 0 mm
19:10 -8.9 °C -12.9 °C 34567.7 hPa ESE 20.9 km/h 20.9 km/h 63 % 0 mm
19:15 -9 °C -12.9 °C 34601.5 hPa ENE 20.9 km/h 20.9 km/h 63 % 0 mm
19:20 -9.1 °C -12.9 °C 34601.5 hPa East 15 km/h 15 km/h 63 % 0 mm
19:25 -9.1 °C -12.9 °C 34601.5 hPa East 15.6 km/h 28.5 km/h 63 % 0 mm
19:30 -9.1 °C -12.9 °C 34601.5 hPa ESE 12.9 km/h 15.6 km/h 63 % 0 mm
19:35 -9.1 °C -13.1 °C 34601.5 hPa ESE 12.9 km/h 18.2 km/h 62 % 0 mm
19:40 -9.1 °C -13.1 °C 34601.5 hPa East 7.7 km/h 15.6 km/h 62 % 0 mm
19:45 -9 °C -13.2 °C 34601.5 hPa East 12.9 km/h 18.2 km/h 61 % 0 mm
19:50 -9 °C -13.2 °C 34601.5 hPa East 12.9 km/h 18.2 km/h 61 % 0 mm
19:55 -9 °C -13.2 °C 34601.5 hPa ESE 15.6 km/h 15.6 km/h 61 % 0 mm
20:00 -8.9 °C -13.1 °C 34601.5 hPa ESE 12.9 km/h 18.2 km/h 61 % 0 mm
20:05 -8.9 °C -13.1 °C 34601.5 hPa ESE 12.9 km/h 18.2 km/h 61 % 0 mm
20:10 -8.9 °C -13.2 °C 34601.5 hPa ESE 17.9 km/h 17.9 km/h 60 % 0 mm
20:15 -8.9 °C -13.2 °C 34601.5 hPa ESE 11.9 km/h 11.9 km/h 60 % 0 mm
20:20 -8.9 °C -13.2 °C 34601.5 hPa ESE 11.9 km/h 11.9 km/h 60 % 0 mm
20:25 -8.9 °C -13.2 °C 34601.5 hPa ESE 6 km/h 6.3 km/h 60 % 0 mm
20:30 -8.9 °C -13.2 °C 34601.5 hPa ESE 6.8 km/h 8.5 km/h 60 % 0 mm
20:35 -10.2 °C -13.2 °C 34669.3 hPa SW 2.6 km/h 2.6 km/h 70 % 0 mm
20:40 -8.9 °C -13.2 °C 34601.5 hPa East 5.1 km/h 7.7 km/h 60 % 0 mm
20:45 -8.9 °C -13.2 °C 34601.5 hPa East 2.6 km/h 7.7 km/h 60 % 0 mm
20:50 -8.9 °C -13.2 °C 34601.5 hPa Calm   5.1 km/h 60 % 0 mm
20:55 -8.9 °C -13.2 °C 34601.5 hPa Calm   5.1 km/h 60 % 0 mm
21:05 -8.9 °C -13.2 °C 34601.5 hPa ENE 2.6 km/h 5.1 km/h 60 % 0 mm
21:10 -8.9 °C -13.2 °C 34601.5 hPa NE 2.6 km/h 5.1 km/h 60 % 0 mm
21:15 -8.9 °C -13.2 °C 34635.4 hPa NE 3.7 km/h 3.7 km/h 60 % 0 mm
21:20 -8.9 °C -13.2 °C 34635.4 hPa NE 3.7 km/h 3.7 km/h 60 % 0 mm
21:25 -8.9 °C -13.2 °C 34635.4 hPa NE 3.7 km/h 3.7 km/h 60 % 0 mm
21:30 -8.9 °C -13.2 °C 34635.4 hPa NE 3.7 km/h 3.7 km/h 60 % 0 mm
21:35 -8.9 °C -13.2 °C 34635.4 hPa NE 3.7 km/h 3.7 km/h 60 % 0 mm
21:40 -9 °C -13.3 °C 34635.4 hPa NE 3.7 km/h 3.7 km/h 60 % 0 mm
21:45 -9 °C -13.2 °C 34635.4 hPa NE 2.6 km/h 2.6 km/h 61 % 0 mm
21:50 -9.1 °C -13.2 °C 34635.4 hPa NE 3.7 km/h 3.7 km/h 61 % 0 mm
21:55 -9.1 °C -13.2 °C 34635.4 hPa NE 2.6 km/h 2.6 km/h 61 % 0 mm
22:00 -9.1 °C -13.2 °C 34635.4 hPa NE 2.6 km/h 2.6 km/h 61 % 0 mm
22:05 -9.1 °C -13.3 °C 34635.4 hPa NE 2.6 km/h 2.6 km/h 61 % 0 mm
22:10 -9.2 °C -13.3 °C 34635.4 hPa NE 3.7 km/h 3.7 km/h 61 % 0 mm
22:15 -9.3 °C -13.4 °C 34669.3 hPa NE 3.7 km/h 3.7 km/h 61 % 0 mm
22:20 -9.3 °C -13.5 °C 34669.3 hPa NE 3.7 km/h 3.7 km/h 61 % 0 mm
22:25 -9.5 °C -13.7 °C 34669.3 hPa NE 3.7 km/h 3.7 km/h 61 % 0 mm
22:35 -9.6 °C -13.6 °C 34669.3 hPa NE 3.7 km/h 3.7 km/h 62 % 0 mm
22:40 -9.5 °C -13.7 °C 34669.3 hPa NE 3.7 km/h 3.7 km/h 61 % 0 mm
22:45 -9.5 °C -13.7 °C 34669.3 hPa NE 2.6 km/h 2.6 km/h 61 % 0 mm
22:50 -9.5 °C -13.7 °C 34669.3 hPa NE 2.6 km/h 2.6 km/h 61 % 0 mm
22:55 -9.5 °C -13.7 °C 34669.3 hPa NE 2.6 km/h 2.6 km/h 61 % 0 mm
23:00 -9.5 °C -13.7 °C 34669.3 hPa NE 2.6 km/h 2.6 km/h 61 % 0 mm
23:05 -9.5 °C -13.7 °C 34669.3 hPa NE 2.6 km/h 2.6 km/h 61 % 0 mm
23:10 -9.5 °C -13.7 °C 34669.3 hPa NE 3.7 km/h 3.7 km/h 61 % 0 mm
23:15 -9.5 °C -13.7 °C 34669.3 hPa NE 2.6 km/h 2.6 km/h 61 % 0 mm
23:20 -9.5 °C -13.7 °C 34669.3 hPa NE 3.7 km/h 3.7 km/h 61 % 0 mm
23:25 -9.5 °C -13.7 °C 34669.3 hPa NE 2.6 km/h 2.6 km/h 61 % 0 mm
23:30 -9.5 °C -13.7 °C 34669.3 hPa NE 2.6 km/h 2.6 km/h 61 % 0 mm
23:35 -9.5 °C -13.7 °C 34669.3 hPa NE 3.7 km/h 3.7 km/h 61 % 0 mm
23:40 -9.5 °C -13.7 °C 34669.3 hPa NE 3.7 km/h 3.7 km/h 61 % 0 mm
23:45 -9.5 °C -13.7 °C 34669.3 hPa NE 3.7 km/h 3.7 km/h 61 % 0 mm
23:50 -9.5 °C -13.7 °C 34669.3 hPa NE 3.7 km/h 3.7 km/h 61 % 0 mm
23:55 -9.5 °C -13.7 °C 34669.3 hPa NE 2.6 km/h 2.6 km/h 61 % 0 mm
Meteo Sesrovires
Elogis d' Weather Underground - 1.5 mb

Guio original per  Jim McMurry - jmcmurry@mwt.net Adaptat per a la plantilla per  Wim van der Kuil - Leuven-Template.eu

Trobareu la nostra informacio del temps tambe a:

Weather Underground

AWEKAS